This is the latest recevied weather packets stored in our database for station/object KE1THD. If no packets are shown the sender has not sent any weather packets the latest 1 day(s).
| Time | Temp. | Humidity | Pressure | Rain* | Wind** | Luminosity | Snow |
|---|---|---|---|---|---|---|---|
| 1778073538 | 7.22° C | 57% | 1015.8 hPa | 0 mm | - | 160 W/m² | - |
| 1778071722 | 6.11° C | 60% | 1015.4 hPa | 0 mm | - | 132 W/m² | - |
| 1778071418 | 6.11° C | 61% | 1015.2 hPa | 0 mm | - | 106 W/m² | - |
| 1778071116 | 6.11° C | 61% | 1015.4 hPa | 0 mm | - | 102 W/m² | - |
| 1778069603 | 5.56° C | 62% | 1014.8 hPa | 0 mm | - | 75 W/m² | - |
| 1778069300 | 5.56° C | 62% | 1014.8 hPa | 0 mm | - | 65 W/m² | - |
| 1778068695 | 5.56° C | 62% | 1014.4 hPa | 0 mm | - | 57 W/m² | - |
| 1778068394 | 5.56° C | 63% | 1014.5 hPa | 0 mm | - | 52 W/m² | - |
| 1778068091 | 5.56° C | 62% | 1014.4 hPa | 0 mm | - | 43 W/m² | - |
| 1778067487 | 5° C | 63% | 1014.1 hPa | 0 mm | - | 36 W/m² | - |
| 1778067184 | 5° C | 64% | 1013.9 hPa | 0 mm | - | 35 W/m² | - |
| 1778066578 | 5° C | 65% | 1013.5 hPa | 0 mm | - | 27 W/m² | - |
| 1778066275 | 5° C | 65% | 1013.4 hPa | 0 mm | - | 20 W/m² | - |
| 1778065973 | 5° C | 65% | 1013.2 hPa | 0 mm | - | 12 W/m² | - |
| 1778065670 | 5° C | 65% | 1013.3 hPa | 0 mm | - | 9 W/m² | - |
| 1778065064 | 5° C | 66% | 1013.4 hPa | 0 mm | - | 3 W/m² | - |
| 1778064156 | 5° C | 65% | 1013 hPa | 0 mm | - | 0 W/m² | - |
| 1778063853 | 5° C | 64% | 1013.3 hPa | 0 mm | - | 0 W/m² | - |
| 1778063550 | 5° C | 65% | 1013.1 hPa | 0 mm | - | 0 W/m² | - |
| 1778063248 | 5° C | 65% | 1013.3 hPa | 0 mm | - | 0 W/m² | - |
| 1778062642 | 5° C | 66% | 1013.4 hPa | 0 mm | - | 0 W/m² | - |
| 1778062339 | 5° C | 65% | 1013.3 hPa | 0 mm | - | 0 W/m² | - |
| 1778062037 | 5° C | 65% | 1013.3 hPa | 0 mm | - | 0 W/m² | - |
| 1778061735 | 5° C | 65% | 1013.2 hPa | 0 mm | - | 0 W/m² | - |
| 1778061433 | 5.56° C | 65% | 1013.3 hPa | 0 mm | - | 0 W/m² | - |
* Rain latest hour (hover to see other rain measurements)
** Current wind speed in m/s (hover to see current wind gust speed)